createdAt,value
2019-02-08T00:01:53.303Z,19.27
2019-02-08T00:04:31.202Z,17.63
2019-02-08T00:07:02.559Z,20.60
2019-02-08T00:09:31.254Z,19.80
2019-02-08T00:12:03.444Z,17.67
2019-02-08T00:14:31.888Z,18.73
2019-02-08T00:17:00.368Z,18.43
2019-02-08T00:19:31.445Z,16.17
2019-02-08T00:22:09.680Z,17.60
2019-02-08T00:24:41.138Z,16.23
2019-02-08T00:27:09.651Z,16.37
2019-02-08T00:29:42.587Z,16.10
2019-02-08T00:32:16.977Z,16.03
2019-02-08T00:34:51.148Z,18.03
2019-02-08T00:37:20.074Z,18.20
2019-02-08T00:39:54.429Z,17.23
2019-02-08T00:42:28.712Z,16.73
2019-02-08T00:45:08.873Z,16.20
2019-02-08T00:47:40.178Z,16.23
2019-02-08T00:50:16.510Z,17.80
2019-02-08T00:52:54.407Z,15.60
2019-02-08T00:55:22.924Z,16.80
2019-02-08T00:57:51.616Z,16.67
2019-02-08T01:00:22.817Z,17.40
2019-02-08T01:02:53.477Z,17.43
2019-02-08T01:05:28.079Z,16.30
2019-02-08T01:08:00.561Z,16.53
2019-02-08T01:10:35.790Z,15.77
2019-02-08T01:13:04.454Z,18.90
2019-02-08T01:15:35.295Z,17.33
2019-02-08T01:18:06.381Z,15.87
2019-02-08T01:20:37.605Z,17.00
2019-02-08T01:23:09.163Z,17.13
2019-02-08T01:25:39.216Z,17.20
2019-02-08T01:28:12.246Z,16.47
2019-02-08T01:30:43.705Z,16.07
2019-02-08T01:33:16.865Z,17.60
2019-02-08T01:35:47.950Z,17.03
2019-02-08T01:38:16.372Z,16.33
2019-02-08T01:40:44.801Z,16.23
2019-02-08T01:43:15.765Z,14.87
2019-02-08T01:45:45.829Z,15.50
2019-02-08T01:48:26.357Z,15.03
2019-02-08T01:50:56.753Z,16.43
2019-02-08T01:53:25.201Z,15.20
2019-02-08T01:56:01.024Z,16.67
2019-02-08T01:58:29.450Z,15.63
2019-02-08T02:01:02.514Z,14.80
2019-02-08T02:03:36.144Z,14.33
2019-02-08T02:06:16.442Z,14.23
2019-02-08T02:08:47.865Z,15.57
2019-02-08T02:11:19.445Z,15.80
2019-02-08T02:13:49.507Z,15.50
2019-02-08T02:16:26.381Z,16.27
2019-02-08T02:18:56.445Z,13.93
2019-02-08T02:21:29.558Z,15.43
2019-02-08T02:23:58.765Z,16.10
2019-02-08T02:26:33.194Z,15.63
2019-02-08T02:29:04.886Z,15.47
2019-02-08T02:31:33.373Z,15.27
2019-02-08T02:34:01.794Z,14.37
2019-02-08T02:36:34.774Z,15.43
2019-02-08T02:39:10.764Z,14.93
2019-02-08T02:41:53.854Z,16.30
2019-02-08T02:44:23.981Z,15.43
2019-02-08T02:46:52.397Z,15.43
2019-02-08T02:49:24.462Z,17.30
2019-02-08T02:51:54.530Z,15.90
2019-02-08T02:54:25.912Z,16.07
2019-02-08T02:56:56.984Z,16.20
2019-02-08T02:59:25.415Z,15.93
2019-02-08T03:01:56.794Z,17.30
2019-02-08T03:04:28.219Z,15.63
2019-02-08T03:06:59.336Z,16.03
2019-02-08T03:09:33.395Z,16.00
2019-02-08T03:12:01.823Z,15.40
2019-02-08T03:14:33.525Z,15.67
2019-02-08T03:17:09.158Z,15.47
2019-02-08T03:19:40.805Z,14.30
2019-02-08T03:22:10.862Z,15.53
2019-02-08T03:24:45.062Z,15.57
2019-02-08T03:27:17.982Z,15.43
2019-02-08T03:29:51.014Z,14.10
2019-02-08T03:32:22.378Z,14.60
2019-02-08T03:34:56.277Z,15.63
2019-02-08T03:37:32.907Z,14.03
2019-02-08T03:40:02.696Z,14.10
2019-02-08T03:42:31.305Z,14.63
2019-02-08T03:45:02.734Z,14.00
2019-02-08T03:47:31.158Z,14.93
2019-02-08T03:50:11.498Z,14.40
2019-02-08T03:52:39.981Z,16.03
2019-02-08T03:55:15.907Z,15.33
2019-02-08T03:57:44.813Z,14.67
2019-02-08T04:00:26.065Z,14.33
2019-02-08T04:02:55.822Z,15.37
2019-02-08T04:05:31.928Z,15.87
2019-02-08T04:08:04.724Z,15.80
2019-02-08T04:10:35.765Z,16.77
2019-02-08T04:13:06.820Z,16.80
2019-02-08T04:18:09.965Z,15.60
2019-02-08T04:20:38.393Z,16.23
2019-02-08T04:23:06.814Z,15.33
2019-02-08T04:25:36.888Z,15.90
2019-02-08T04:28:07.981Z,16.60
2019-02-08T04:30:41.193Z,16.73
2019-02-08T04:33:09.014Z,17.17
2019-02-08T04:35:43.137Z,15.53
2019-02-08T04:38:19.004Z,15.77
2019-02-08T04:40:49.094Z,14.93
2019-02-08T04:43:22.969Z,15.67
2019-02-08T04:46:02.934Z,15.43
2019-02-08T04:48:33.051Z,14.57
2019-02-08T04:51:01.755Z,13.80
2019-02-08T04:53:32.909Z,14.23
2019-02-08T04:56:04.344Z,14.47
2019-02-08T04:58:48.850Z,13.57
2019-02-08T05:01:22.763Z,13.67
2019-02-08T05:03:52.826Z,13.07
2019-02-08T05:06:22.881Z,13.20
2019-02-08T05:08:51.566Z,12.50
2019-02-08T05:11:21.489Z,11.90
2019-02-08T05:13:53.867Z,12.60
2019-02-08T05:16:22.280Z,13.40
2019-02-08T05:19:06.954Z,12.60
2019-02-08T05:21:35.074Z,12.77
2019-02-08T05:24:13.855Z,15.33
2019-02-08T05:26:42.393Z,13.70
2019-02-08T05:29:13.526Z,13.63
2019-02-08T05:31:44.900Z,14.83
2019-02-08T05:34:19.382Z,14.07
2019-02-08T05:36:53.481Z,13.97
2019-02-08T05:39:21.916Z,14.27
2019-02-08T05:41:54.640Z,14.00
2019-02-08T05:44:23.066Z,13.87
2019-02-08T05:46:53.125Z,14.37
2019-02-08T05:49:24.058Z,14.07
2019-02-08T05:51:54.177Z,14.10
2019-02-08T05:54:22.649Z,13.90
2019-02-08T05:56:51.070Z,14.50
2019-02-08T05:59:21.134Z,14.97
2019-02-08T06:01:56.150Z,13.70
2019-02-08T06:04:26.266Z,15.13
2019-02-08T06:07:01.722Z,14.17
2019-02-08T06:09:32.617Z,13.77
2019-02-08T06:12:09.746Z,13.43
2019-02-08T06:14:38.241Z,13.23
2019-02-08T06:17:11.021Z,13.97
2019-02-08T06:19:48.472Z,12.53
2019-02-08T06:22:16.966Z,14.43
2019-02-08T06:24:51.530Z,13.70
2019-02-08T06:27:24.474Z,13.60
2019-02-08T06:29:55.954Z,12.37
2019-02-08T06:32:24.381Z,13.57
2019-02-08T06:34:57.481Z,12.37
2019-02-08T06:37:30.265Z,12.67
2019-02-08T06:39:58.908Z,13.20
2019-02-08T06:42:30.256Z,11.97
2019-02-08T06:45:01.710Z,12.30
2019-02-08T06:47:35.477Z,14.63
2019-02-08T06:50:06.049Z,12.97
2019-02-08T06:52:40.330Z,14.43
2019-02-08T06:55:15.979Z,12.67
2019-02-08T06:57:46.001Z,13.63
2019-02-08T07:00:29.225Z,13.23
2019-02-08T07:03:07.743Z,13.33
2019-02-08T07:05:56.862Z,12.40
2019-02-08T07:08:36.045Z,13.77
2019-02-08T07:11:06.172Z,12.20
2019-02-08T07:13:48.085Z,12.90
2019-02-08T07:16:26.424Z,13.00
2019-02-08T07:18:56.477Z,13.63
2019-02-08T07:21:44.493Z,14.37
2019-02-08T07:24:33.906Z,13.03
2019-02-08T07:27:06.737Z,13.77
2019-02-08T07:29:54.550Z,15.10
2019-02-08T07:32:35.107Z,15.20
2019-02-08T07:35:25.913Z,14.47
2019-02-08T07:38:00.255Z,14.13
2019-02-08T07:40:41.948Z,14.53
2019-02-08T07:43:28.866Z,13.57
2019-02-08T07:46:08.890Z,14.07
2019-02-08T07:49:02.782Z,13.77
2019-02-08T07:51:54.933Z,13.37
2019-02-08T07:54:25.026Z,13.90
2019-02-08T07:56:58.327Z,13.37
2019-02-08T07:59:35.529Z,13.50
2019-02-08T08:02:11.174Z,13.10
2019-02-08T08:05:04.399Z,12.80
2019-02-08T08:07:43.557Z,13.30
2019-02-08T08:10:34.190Z,13.47
2019-02-08T08:13:04.669Z,12.70
2019-02-08T08:15:34.852Z,12.67
2019-02-08T08:18:19.922Z,13.07
2019-02-08T08:21:14.929Z,12.40
2019-02-08T08:24:02.650Z,11.23
2019-02-08T08:26:33.529Z,11.27
2019-02-08T08:29:12.933Z,10.40
2019-02-08T08:31:47.853Z,12.40
2019-02-08T08:34:37.670Z,11.17
2019-02-08T08:37:37.266Z,11.33
2019-02-08T08:40:43.177Z,9.67
2019-02-08T08:43:21.866Z,10.03
2019-02-08T08:46:02.168Z,10.50
2019-02-08T08:48:53.654Z,10.33
2019-02-08T08:51:55.181Z,10.17
2019-02-08T08:54:58.589Z,14.33
2019-02-08T08:57:49.142Z,9.73
2019-02-08T09:00:20.858Z,12.80
2019-02-08T09:03:05.786Z,10.63
2019-02-08T09:05:50.677Z,9.63
2019-02-08T09:08:56.494Z,9.13
2019-02-08T09:11:44.205Z,9.27
2019-02-08T09:14:24.510Z,9.77
2019-02-08T09:17:07.181Z,9.90
2019-02-08T09:19:44.571Z,9.67
2019-02-08T09:22:52.698Z,8.60
2019-02-08T09:25:49.885Z,8.97
2019-02-08T09:28:23.975Z,8.63
2019-02-08T09:30:58.389Z,8.77
2019-02-08T09:33:32.779Z,8.93
2019-02-08T09:36:17.745Z,8.13
2019-02-08T09:39:08.452Z,8.87
2019-02-08T09:41:51.945Z,7.90
2019-02-08T09:44:59.237Z,7.93
2019-02-08T09:47:30.722Z,8.23
2019-02-08T09:50:22.644Z,8.07
2019-02-08T09:53:17.895Z,7.73
2019-02-08T09:56:15.307Z,7.87
2019-02-08T09:59:07.829Z,7.97
2019-02-08T10:01:58.217Z,8.63
2019-02-08T10:04:48.925Z,7.27
2019-02-08T10:07:39.912Z,8.20
2019-02-08T10:10:33.369Z,7.07
2019-02-08T10:13:21.429Z,6.77
2019-02-08T10:16:25.594Z,7.50
2019-02-08T10:19:31.116Z,8.00
2019-02-08T10:22:21.747Z,12.47
2019-02-08T10:25:15.299Z,8.80
2019-02-08T10:28:14.948Z,6.37
2019-02-08T10:31:20.355Z,8.23
2019-02-08T10:34:03.717Z,6.33
2019-02-08T10:37:01.932Z,5.03
2019-02-08T10:39:45.421Z,4.97
2019-02-08T10:42:39.396Z,5.77
2019-02-08T10:45:13.926Z,4.83
2019-02-08T10:48:00.317Z,4.63
2019-02-08T10:50:48.141Z,4.43
2019-02-08T10:53:54.317Z,4.80
2019-02-08T10:56:58.465Z,5.83
2019-02-08T10:59:48.042Z,5.97
2019-02-08T11:02:43.406Z,5.13
2019-02-08T11:05:37.397Z,5.80
2019-02-08T11:08:41.834Z,6.10
2019-02-08T11:11:49.638Z,6.47
2019-02-08T11:14:29.766Z,6.90
2019-02-08T11:17:34.693Z,6.83
2019-02-08T11:20:08.758Z,6.70
2019-02-08T11:22:38.770Z,6.70
2019-02-08T11:25:09.024Z,6.40
2019-02-08T11:27:37.461Z,6.53
2019-02-08T11:30:22.702Z,6.20
2019-02-08T11:32:51.130Z,7.27
2019-02-08T11:35:22.685Z,6.97
2019-02-08T11:37:53.869Z,6.80
2019-02-08T11:40:26.573Z,7.07
2019-02-08T11:43:04.157Z,8.50
2019-02-08T11:45:53.542Z,7.37
2019-02-08T11:48:26.393Z,7.23
2019-02-08T11:51:04.714Z,7.33
2019-02-08T11:53:30.542Z,7.83
2019-02-08T11:56:01.941Z,8.33
2019-02-08T11:58:33.061Z,8.47
2019-02-08T12:01:04.376Z,8.13
2019-02-08T12:03:32.793Z,8.07
2019-02-08T12:06:04.605Z,8.97
2019-02-08T12:08:34.325Z,9.33
2019-02-08T12:11:08.621Z,9.57
2019-02-08T12:13:39.750Z,9.40
2019-02-08T12:16:11.090Z,9.57
2019-02-08T12:18:42.219Z,9.33
2019-02-08T12:21:11.944Z,9.73
2019-02-08T12:23:40.341Z,9.93
2019-02-08T12:26:11.734Z,9.17
2019-02-08T12:28:40.156Z,9.90
2019-02-08T12:31:08.573Z,11.43
2019-02-08T12:33:39.941Z,9.93
2019-02-08T12:36:13.626Z,12.00
2019-02-08T12:38:42.838Z,9.93
2019-02-08T12:41:22.540Z,9.37
2019-02-08T12:43:50.953Z,8.93
2019-02-08T12:46:19.368Z,9.20
2019-02-08T12:48:55.065Z,9.90
2019-02-08T12:51:26.298Z,10.03
2019-02-08T12:54:04.866Z,9.10
2019-02-08T12:56:33.488Z,10.50
2019-02-08T12:59:10.796Z,9.67
2019-02-08T13:01:39.365Z,9.83
2019-02-08T13:04:08.931Z,9.73
2019-02-08T13:06:43.117Z,10.37
2019-02-08T13:09:13.229Z,10.50
2019-02-08T13:11:47.340Z,9.60
2019-02-08T13:14:18.777Z,8.97
2019-02-08T13:16:48.968Z,9.83
2019-02-08T13:19:26.143Z,7.57
2019-02-08T13:21:57.477Z,8.77
2019-02-08T13:24:30.485Z,8.67
2019-02-08T13:27:00.549Z,8.63
2019-02-08T13:29:28.962Z,8.53
2019-02-08T13:32:06.253Z,9.50
2019-02-08T13:34:45.353Z,11.03
2019-02-08T13:37:16.849Z,9.30
2019-02-08T13:39:48.206Z,11.73
2019-02-08T13:42:16.629Z,11.57
2019-02-08T13:44:47.982Z,11.70
2019-02-08T13:47:16.405Z,12.13
2019-02-08T13:49:47.609Z,11.63
2019-02-08T13:52:18.701Z,11.30
2019-02-08T13:54:52.477Z,11.93
2019-02-08T13:57:25.218Z,12.30
2019-02-08T13:59:53.712Z,11.77
2019-02-08T14:02:22.417Z,12.10
2019-02-08T14:04:54.858Z,12.40
2019-02-08T14:07:35.050Z,12.33
2019-02-08T14:10:05.198Z,13.40
2019-02-08T14:12:33.866Z,13.60
2019-02-08T14:15:10.051Z,12.73
2019-02-08T14:17:34.304Z,13.07
2019-02-08T14:20:09.912Z,12.57
2019-02-08T14:22:39.997Z,14.03
2019-02-08T14:25:20.573Z,14.53
2019-02-08T14:27:52.385Z,14.43
2019-02-08T14:30:34.440Z,13.93
2019-02-08T14:33:03.189Z,14.00
2019-02-08T14:35:31.700Z,13.67
2019-02-08T14:38:04.953Z,14.87
2019-02-08T14:40:36.347Z,13.70
2019-02-08T14:43:06.090Z,18.40
2019-02-08T14:45:34.512Z,19.37
2019-02-08T14:48:05.568Z,16.87
2019-02-08T14:50:35.613Z,15.13
2019-02-08T14:53:04.525Z,17.10
2019-02-08T14:55:41.766Z,13.87
2019-02-08T14:58:10.280Z,13.50
2019-02-08T15:00:38.937Z,13.60
2019-02-08T15:03:10.985Z,14.87
2019-02-08T15:05:41.962Z,14.53
2019-02-08T15:08:11.909Z,14.47
2019-02-08T15:10:49.145Z,15.40
2019-02-08T15:13:20.296Z,14.00
2019-02-08T15:15:48.716Z,14.83
2019-02-08T15:18:19.025Z,14.90
2019-02-08T15:20:56.477Z,14.23
2019-02-08T15:23:26.538Z,14.17
2019-02-08T15:25:58.083Z,14.67
2019-02-08T15:28:29.317Z,13.43
2019-02-08T15:31:01.009Z,15.13
2019-02-08T15:33:40.982Z,13.80
2019-02-08T15:36:09.397Z,13.80
2019-02-08T15:38:38.736Z,13.50
2019-02-08T15:41:07.403Z,12.83
2019-02-08T15:43:36.853Z,12.90
2019-02-08T15:46:05.346Z,14.40
2019-02-08T15:48:35.496Z,14.03
2019-02-08T15:51:04.119Z,14.47
2019-02-08T15:53:34.292Z,13.30
2019-02-08T15:56:11.677Z,14.23
2019-02-08T15:58:41.737Z,13.43
2019-02-08T16:01:10.698Z,14.37
2019-02-08T16:03:41.809Z,13.33
2019-02-08T16:06:10.467Z,15.20
2019-02-08T16:08:42.105Z,15.07
2019-02-08T16:11:10.797Z,14.73
2019-02-08T16:13:39.221Z,15.47
2019-02-08T16:16:09.540Z,15.07
2019-02-08T16:18:41.997Z,15.90
2019-02-08T16:21:13.188Z,15.37
2019-02-08T16:23:41.609Z,14.40
2019-02-08T16:26:10.304Z,14.70
2019-02-08T16:28:44.636Z,14.80
2019-02-08T16:31:16.104Z,14.40
2019-02-08T16:33:45.538Z,14.40
2019-02-08T16:36:15.799Z,14.93
2019-02-08T16:38:47.145Z,15.87
2019-02-08T16:41:15.564Z,14.80
2019-02-08T16:43:46.943Z,15.07
2019-02-08T16:46:18.317Z,22.87
2019-02-08T16:48:48.373Z,16.20
2019-02-08T16:51:16.809Z,14.37
2019-02-08T16:53:52.884Z,15.43
2019-02-08T16:56:18.038Z,13.50
2019-02-08T16:58:49.393Z,12.93
2019-02-08T17:01:19.453Z,13.77
2019-02-08T17:03:53.338Z,14.13
2019-02-08T17:06:30.239Z,13.90
2019-02-08T17:09:00.284Z,15.17
2019-02-08T17:11:28.705Z,14.57
2019-02-08T17:13:57.124Z,14.90
2019-02-08T17:16:25.549Z,14.90
2019-02-08T17:18:53.977Z,14.80
2019-02-08T17:21:22.400Z,15.87
2019-02-08T17:23:53.809Z,17.23
2019-02-08T17:26:22.245Z,15.60
2019-02-08T17:28:50.662Z,16.07
2019-02-08T17:31:23.809Z,17.87
2019-02-08T17:33:52.228Z,18.57
2019-02-08T17:36:23.329Z,16.03
2019-02-08T17:38:53.383Z,16.43
2019-02-08T17:41:26.119Z,15.90
2019-02-08T17:43:57.237Z,15.60
2019-02-08T17:46:25.666Z,15.13
2019-02-08T17:48:57.013Z,15.47
2019-02-08T17:51:29.824Z,15.63
2019-02-08T17:53:59.878Z,15.50
2019-02-08T17:56:43.644Z,14.70
2019-02-08T17:59:13.704Z,15.77
2019-02-08T18:01:42.132Z,14.70
2019-02-08T18:04:18.981Z,14.70
2019-02-08T18:06:47.407Z,15.70
2019-02-08T18:09:18.761Z,15.20
2019-02-08T18:11:49.845Z,18.13
2019-02-08T18:14:27.041Z,17.67
2019-02-08T18:16:55.456Z,17.30
2019-02-08T18:19:26.345Z,17.33
2019-02-08T18:21:57.968Z,18.07
2019-02-08T18:24:34.070Z,19.67
2019-02-08T18:27:11.482Z,18.87
2019-02-08T18:29:41.533Z,19.07
2019-02-08T18:32:12.690Z,17.80
2019-02-08T18:34:44.146Z,19.00
2019-02-08T18:37:15.233Z,18.33
2019-02-08T18:39:46.569Z,18.90
2019-02-08T18:42:15.001Z,18.20
2019-02-08T18:44:43.429Z,20.10
2019-02-08T18:47:14.261Z,19.43
2019-02-08T18:49:48.497Z,19.50
2019-02-08T18:52:18.593Z,20.17
2019-02-08T18:54:46.997Z,19.73
2019-02-08T18:57:17.308Z,19.40
2019-02-08T18:59:45.725Z,19.07
2019-02-08T19:02:17.127Z,19.77
2019-02-08T19:04:52.741Z,18.77
2019-02-08T19:07:21.167Z,19.23
2019-02-08T19:09:52.362Z,18.33
2019-02-08T19:12:26.301Z,19.63
2019-02-08T19:14:54.737Z,19.33
2019-02-08T19:17:26.116Z,18.97
2019-02-08T19:19:56.178Z,19.63
2019-02-08T19:22:27.997Z,19.23
2019-02-08T19:24:56.437Z,18.03
2019-02-08T19:27:24.853Z,19.27
2019-02-08T19:30:00.053Z,18.80
2019-02-08T19:32:36.082Z,19.67
2019-02-08T19:35:07.845Z,21.77
2019-02-08T19:37:39.031Z,20.47
2019-02-08T19:40:33.640Z,19.50
2019-02-08T19:43:04.601Z,20.37
2019-02-08T19:45:38.665Z,18.80
2019-02-08T19:48:08.649Z,18.73
2019-02-08T19:50:44.634Z,19.07
2019-02-08T19:53:20.813Z,18.30
2019-02-08T19:55:49.301Z,17.63
2019-02-08T19:58:19.085Z,19.30
2019-02-08T20:00:47.503Z,18.67
2019-02-08T20:03:24.006Z,18.07
2019-02-08T20:05:52.412Z,18.90
2019-02-08T20:08:29.360Z,19.87
2019-02-08T20:11:00.977Z,17.53
2019-02-08T20:13:29.486Z,19.20
2019-02-08T20:16:00.837Z,17.37
2019-02-08T20:18:29.256Z,18.23
2019-02-08T20:21:01.850Z,17.50
2019-02-08T20:23:31.930Z,17.50
2019-02-08T20:26:02.273Z,16.10
2019-02-08T20:28:33.389Z,17.17
2019-02-08T20:31:03.164Z,17.87
2019-02-08T20:33:31.664Z,16.17
2019-02-08T20:36:00.093Z,16.90
2019-02-08T20:38:32.187Z,15.50
2019-02-08T20:41:03.329Z,17.10
2019-02-08T20:43:31.994Z,16.57
2019-02-08T20:46:02.426Z,15.77
2019-02-08T20:48:32.451Z,15.63
2019-02-08T20:51:08.524Z,16.87
2019-02-08T20:53:39.990Z,16.67
2019-02-08T20:56:08.576Z,16.67
2019-02-08T20:58:50.418Z,17.13
2019-02-08T21:01:16.058Z,16.07
2019-02-08T21:03:47.237Z,16.90
2019-02-08T21:06:15.658Z,18.63
2019-02-08T21:08:49.827Z,17.20
2019-02-08T21:11:19.161Z,17.20
2019-02-08T21:13:50.550Z,17.00
2019-02-08T21:16:21.653Z,16.30
2019-02-08T21:18:55.706Z,16.93
2019-02-08T21:21:25.778Z,16.03
2019-02-08T21:23:58.641Z,16.17
2019-02-08T21:26:37.817Z,16.70
2019-02-08T21:29:09.460Z,17.67
2019-02-08T21:31:43.416Z,15.13
2019-02-08T21:34:19.368Z,15.57
2019-02-08T21:36:56.145Z,16.07
2019-02-08T21:39:27.525Z,16.37
2019-02-08T21:42:07.850Z,17.23
2019-02-08T21:44:42.212Z,15.40
2019-02-08T21:47:15.154Z,14.80
2019-02-08T21:49:41.033Z,15.43
2019-02-08T21:52:11.097Z,15.40
2019-02-08T21:54:47.693Z,17.67
2019-02-08T21:57:17.765Z,16.07
2019-02-08T21:59:46.190Z,15.90
2019-02-08T22:02:22.689Z,15.17
2019-02-08T22:04:59.545Z,15.33
2019-02-08T22:07:35.149Z,15.10
2019-02-08T22:10:09.636Z,16.10
2019-02-08T22:12:43.743Z,14.60
2019-02-08T22:15:17.906Z,14.90
2019-02-08T22:17:50.925Z,14.13
2019-02-08T22:20:23.632Z,15.07
2019-02-08T22:22:49.810Z,13.40
2019-02-08T22:25:20.956Z,13.57
2019-02-08T22:27:58.055Z,13.60
2019-02-08T22:30:29.876Z,14.87
2019-02-08T22:33:02.372Z,13.63
2019-02-08T22:35:44.137Z,14.07
2019-02-08T22:38:12.609Z,14.67
2019-02-08T22:40:48.448Z,14.20
2019-02-08T22:43:19.691Z,15.10
2019-02-08T22:45:55.678Z,14.33
2019-02-08T22:48:28.665Z,15.70
2019-02-08T22:50:59.529Z,14.63
2019-02-08T22:53:32.197Z,14.17
2019-02-08T22:56:00.656Z,14.57
2019-02-08T22:58:34.712Z,13.90
2019-02-08T23:01:06.205Z,14.17
2019-02-08T23:03:37.482Z,15.43
2019-02-08T23:06:12.932Z,15.17
2019-02-08T23:08:46.777Z,14.97
2019-02-08T23:11:20.319Z,14.77
2019-02-08T23:13:51.570Z,13.97
2019-02-08T23:16:28.084Z,13.60
2019-02-08T23:18:59.235Z,13.87
2019-02-08T23:21:29.290Z,13.87
2019-02-08T23:24:02.354Z,13.80
2019-02-08T23:26:30.779Z,14.20
2019-02-08T23:29:07.889Z,13.37
2019-02-08T23:31:36.405Z,13.77
2019-02-08T23:34:06.610Z,13.70
2019-02-08T23:36:37.687Z,15.00
2019-02-08T23:39:09.176Z,14.00
2019-02-08T23:41:37.597Z,13.83
2019-02-08T23:44:07.661Z,13.97
2019-02-08T23:46:41.693Z,13.90
2019-02-08T23:49:15.521Z,14.63
2019-02-08T23:51:49.912Z,15.47
2019-02-08T23:54:19.972Z,14.40
2019-02-08T23:56:53.865Z,14.07
2019-02-08T23:59:22.768Z,13.70
